Time,TemperatureF,DewpointF,PressureIn,WindDirection,WindDirectionDegrees,WindSpeedMPH,WindSpeedGustMPH,Humidity,HourlyPrecipIn,Conditions,Clouds,dailyrainin,SolarRadiationWatts/m^2,SoftwareType,DateUTC
2013-04-07 00:22:00,49.0,25.0,-100.00,NW,317,2.0,5.0,38,0.00,,,0.00,0.000000,,2013-04-07 06:22:00,
2013-04-07 00:32:00,49.0,25.0,-100.00,NW,317,2.0,5.0,38,0.00,,,0.00,0.000000,,2013-04-07 06:32:00,
2013-04-07 00:42:00,49.0,25.0,-100.00,NW,317,2.0,5.0,38,0.00,,,0.00,0.000000,,2013-04-07 06:42:00,
2013-04-07 00:52:00,49.0,25.0,-100.00,NW,317,2.0,5.0,38,0.00,,,0.00,0.000000,,2013-04-07 06:52:00,
2013-04-07 01:22:00,48.0,24.0,-100.00,East,83,1.0,4.0,39,0.00,,,0.00,0.000000,,2013-04-07 07:22:00,
2013-04-07 01:32:00,48.0,24.0,-100.00,East,83,1.0,4.0,39,0.00,,,0.00,0.000000,,2013-04-07 07:32:00,
2013-04-07 01:42:00,48.0,24.0,-100.00,East,83,1.0,4.0,39,0.00,,,0.00,0.000000,,2013-04-07 07:42:00,
2013-04-07 01:52:00,48.0,24.0,-100.00,East,83,1.0,4.0,39,0.00,,,0.00,0.000000,,2013-04-07 07:52:00,
2013-04-07 02:22:00,48.0,25.0,-100.00,East,94,3.0,6.0,41,0.00,,,0.00,0.000000,,2013-04-07 08:22:00,
2013-04-07 02:32:00,48.0,25.0,-100.00,East,94,3.0,6.0,41,0.00,,,0.00,0.000000,,2013-04-07 08:32:00,
2013-04-07 02:42:00,48.0,25.0,-100.00,East,94,3.0,6.0,41,0.00,,,0.00,0.000000,,2013-04-07 08:42:00,
2013-04-07 02:52:00,48.0,25.0,-100.00,East,94,3.0,6.0,41,0.00,,,0.00,0.000000,,2013-04-07 08:52:00,
2013-04-07 03:22:00,46.0,26.0,-100.00,East,83,5.0,7.0,45,0.00,,,0.00,0.000000,,2013-04-07 09:22:00,
2013-04-07 03:33:00,46.0,26.0,-100.00,East,83,5.0,7.0,45,0.00,,,0.00,0.000000,,2013-04-07 09:33:00,
2013-04-07 03:43:00,46.0,26.0,-100.00,East,83,5.0,7.0,45,0.00,,,0.00,0.000000,,2013-04-07 09:43:00,
2013-04-07 03:53:00,46.0,26.0,-100.00,East,83,5.0,7.0,45,0.00,,,0.00,0.000000,,2013-04-07 09:53:00,
2013-04-07 04:22:00,45.0,29.0,-100.00,East,100,3.0,9.0,53,0.00,,,0.00,0.000000,,2013-04-07 10:22:00,
2013-04-07 04:33:00,45.0,29.0,-100.00,East,100,3.0,9.0,53,0.00,,,0.00,0.000000,,2013-04-07 10:33:00,
2013-04-07 04:42:00,45.0,29.0,-100.00,East,100,3.0,9.0,53,0.00,,,0.00,0.000000,,2013-04-07 10:42:00,
2013-04-07 04:52:00,45.0,29.0,-100.00,East,100,3.0,9.0,53,0.00,,,0.00,0.000000,,2013-04-07 10:52:00,
2013-04-07 05:22:00,41.0,27.0,-100.00,SE,128,1.0,5.0,57,0.00,,,-99.99,0.000000,,2013-04-07 11:22:00,
2013-04-07 05:32:00,41.0,27.0,-100.00,SE,128,1.0,5.0,57,0.00,,,-99.99,0.000000,,2013-04-07 11:32:00,
2013-04-07 05:42:00,41.0,27.0,-100.00,SE,128,1.0,5.0,57,0.00,,,-99.99,0.000000,,2013-04-07 11:42:00,
2013-04-07 05:52:00,41.0,27.0,-100.00,SE,128,1.0,5.0,57,0.00,,,-99.99,0.000000,,2013-04-07 11:52:00,
2013-04-07 06:22:00,38.0,27.0,-100.00,SE,135,1.0,3.0,64,0.00,,,0.00,0.000000,,2013-04-07 12:22:00,
2013-04-07 06:33:00,38.0,27.0,-100.00,SE,135,1.0,3.0,64,0.00,,,0.00,0.000000,,2013-04-07 12:33:00,
2013-04-07 06:42:00,38.0,27.0,-100.00,SE,135,1.0,3.0,64,0.00,,,0.00,0.000000,,2013-04-07 12:42:00,
2013-04-07 06:52:00,38.0,27.0,-100.00,SE,135,1.0,3.0,64,0.00,,,0.00,0.000000,,2013-04-07 12:52:00,
2013-04-07 07:22:00,37.0,27.0,-100.00,East,100,2.0,4.0,67,-99.99,,,0.00,1.000000,,2013-04-07 13:22:00,
2013-04-07 07:32:00,37.0,27.0,-100.00,East,100,2.0,4.0,67,-99.99,,,0.00,1.000000,,2013-04-07 13:32:00,
2013-04-07 07:42:00,37.0,27.0,-100.00,East,100,2.0,4.0,67,-99.99,,,0.00,1.000000,,2013-04-07 13:42:00,
2013-04-07 07:52:00,37.0,27.0,-100.00,East,100,2.0,4.0,67,-99.99,,,0.00,1.000000,,2013-04-07 13:52:00,
2013-04-07 08:23:00,43.0,30.0,-100.00,East,93,4.0,7.0,61,0.00,,,0.00,88.000000,,2013-04-07 14:23:00,
2013-04-07 08:32:00,43.0,30.0,-100.00,East,93,4.0,7.0,61,0.00,,,0.00,88.000000,,2013-04-07 14:32:00,
2013-04-07 08:43:00,43.0,30.0,-100.00,East,93,4.0,7.0,61,0.00,,,0.00,88.000000,,2013-04-07 14:43:00,
2013-04-07 08:53:00,43.0,30.0,-100.00,East,93,4.0,7.0,61,0.00,,,0.00,88.000000,,2013-04-07 14:53:00,
2013-04-07 09:22:00,50.0,29.0,-100.00,SSE,152,5.0,11.0,45,0.00,,,0.00,372.000000,,2013-04-07 15:22:00,
2013-04-07 09:33:00,50.0,29.0,-100.00,SSE,152,5.0,11.0,45,0.00,,,0.00,372.000000,,2013-04-07 15:33:00,
2013-04-07 09:43:00,50.0,29.0,-100.00,SSE,152,5.0,11.0,45,0.00,,,0.00,372.000000,,2013-04-07 15:43:00,
2013-04-07 09:53:00,50.0,29.0,-100.00,SSE,152,5.0,11.0,45,0.00,,,0.00,372.000000,,2013-04-07 15:53:00,
2013-04-07 10:23:00,56.0,29.0,-100.00,West,265,1.0,6.0,35,-99.99,,,0.00,467.000000,,2013-04-07 16:23:00,
2013-04-07 10:33:00,56.0,29.0,-100.00,West,265,1.0,6.0,35,-99.99,,,0.00,467.000000,,2013-04-07 16:33:00,
2013-04-07 10:42:00,56.0,29.0,-100.00,West,265,1.0,6.0,35,-99.99,,,0.00,467.000000,,2013-04-07 16:42:00,
2013-04-07 10:52:00,56.0,29.0,-100.00,West,265,1.0,6.0,35,-99.99,,,0.00,467.000000,,2013-04-07 16:52:00,
2013-04-07 11:22:00,63.0,28.0,-100.00,WSW,244,2.0,7.0,26,0.00,,,0.00,840.000000,,2013-04-07 17:22:00,
2013-04-07 11:32:00,63.0,28.0,-100.00,WSW,244,2.0,7.0,26,0.00,,,0.00,840.000000,,2013-04-07 17:32:00,
2013-04-07 11:42:00,63.0,28.0,-100.00,WSW,244,2.0,7.0,26,0.00,,,0.00,840.000000,,2013-04-07 17:42:00,
2013-04-07 11:52:00,63.0,28.0,-100.00,WSW,244,2.0,7.0,26,0.00,,,0.00,840.000000,,2013-04-07 17:52:00,
2013-04-07 12:22:00,65.0,26.0,-100.00,SW,217,4.0,12.0,23,0.00,,,0.00,993.000000,,2013-04-07 18:22:00,
2013-04-07 12:32:00,65.0,26.0,-100.00,SW,217,4.0,12.0,23,0.00,,,0.00,993.000000,,2013-04-07 18:32:00,
2013-04-07 12:42:00,65.0,26.0,-100.00,SW,217,4.0,12.0,23,0.00,,,0.00,993.000000,,2013-04-07 18:42:00,
2013-04-07 12:52:00,65.0,26.0,-100.00,SW,217,4.0,12.0,23,0.00,,,0.00,993.000000,,2013-04-07 18:52:00,
2013-04-07 13:22:00,66.0,23.0,-100.00,West,265,10.0,16.0,19,0.00,,,0.00,739.000000,,2013-04-07 19:22:00,
2013-04-07 13:32:00,66.0,23.0,-100.00,West,265,10.0,16.0,19,0.00,,,0.00,739.000000,,2013-04-07 19:32:00,
2013-04-07 13:42:00,66.0,23.0,-100.00,West,265,10.0,16.0,19,0.00,,,0.00,739.000000,,2013-04-07 19:42:00,
2013-04-07 13:52:00,66.0,23.0,-100.00,West,265,10.0,16.0,19,0.00,,,0.00,739.000000,,2013-04-07 19:52:00,
2013-04-07 14:22:00,67.0,16.0,-100.00,WSW,247,10.0,22.0,14,0.00,,,0.00,966.000000,,2013-04-07 20:22:00,
2013-04-07 14:32:00,67.0,16.0,-100.00,WSW,247,10.0,22.0,14,0.00,,,0.00,966.000000,,2013-04-07 20:32:00,
2013-04-07 14:42:00,67.0,16.0,-100.00,WSW,247,10.0,22.0,14,0.00,,,0.00,966.000000,,2013-04-07 20:42:00,
2013-04-07 14:52:00,67.0,16.0,-100.00,WSW,247,10.0,22.0,14,0.00,,,0.00,966.000000,,2013-04-07 20:52:00,
2013-04-07 15:22:00,70.0,19.0,-100.00,West,270,12.0,25.0,14,0.00,,,0.00,1060.000000,,2013-04-07 21:22:00,
2013-04-07 15:33:00,70.0,19.0,-100.00,West,270,12.0,25.0,14,0.00,,,0.00,1060.000000,,2013-04-07 21:33:00,
2013-04-07 15:43:00,70.0,19.0,-100.00,West,270,12.0,25.0,14,0.00,,,0.00,1060.000000,,2013-04-07 21:43:00,
2013-04-07 15:52:00,70.0,19.0,-100.00,West,270,12.0,25.0,14,0.00,,,0.00,1060.000000,,2013-04-07 21:52:00,
2013-04-07 16:23:00,69.0,16.0,-100.00,SW,236,8.0,24.0,13,0.00,,,0.00,781.000000,,2013-04-07 22:23:00,
2013-04-07 16:33:00,69.0,16.0,-100.00,SW,236,8.0,24.0,13,0.00,,,0.00,781.000000,,2013-04-07 22:33:00,
2013-04-07 16:43:00,69.0,16.0,-100.00,SW,236,8.0,24.0,13,0.00,,,0.00,781.000000,,2013-04-07 22:43:00,
2013-04-07 16:52:00,69.0,16.0,-100.00,SW,236,8.0,24.0,13,0.00,,,0.00,781.000000,,2013-04-07 22:52:00,
2013-04-07 17:22:00,69.0,8.0,-100.00,West,281,13.0,28.0,9,0.00,,,0.00,644.000000,,2013-04-07 23:22:00,
2013-04-07 17:32:00,69.0,8.0,-100.00,West,281,13.0,28.0,9,0.00,,,0.00,644.000000,,2013-04-07 23:32:00,
2013-04-07 17:42:00,69.0,8.0,-100.00,West,281,13.0,28.0,9,0.00,,,0.00,644.000000,,2013-04-07 23:42:00,
2013-04-07 17:52:00,69.0,8.0,-100.00,West,281,13.0,28.0,9,0.00,,,0.00,644.000000,,2013-04-07 23:52:00,
2013-04-07 18:22:00,67.0,11.0,-100.00,West,271,11.0,24.0,11,0.00,,,0.00,371.000000,,2013-04-08 00:22:00,
2013-04-07 18:32:00,67.0,11.0,-100.00,West,271,11.0,24.0,11,0.00,,,0.00,371.000000,,2013-04-08 00:32:00,
2013-04-07 18:42:00,67.0,11.0,-100.00,West,271,11.0,24.0,11,0.00,,,0.00,371.000000,,2013-04-08 00:42:00,
2013-04-07 18:52:00,67.0,11.0,-100.00,West,271,11.0,24.0,11,0.00,,,0.00,371.000000,,2013-04-08 00:52:00,
2013-04-07 19:22:00,66.0,15.0,-100.00,West,263,9.0,20.0,14,0.00,,,0.00,224.000000,,2013-04-08 01:22:00,
2013-04-07 19:33:00,66.0,15.0,-100.00,West,263,9.0,20.0,14,0.00,,,0.00,224.000000,,2013-04-08 01:33:00,
2013-04-07 19:42:00,66.0,15.0,-100.00,West,263,9.0,20.0,14,0.00,,,0.00,224.000000,,2013-04-08 01:42:00,
2013-04-07 19:53:00,66.0,15.0,-100.00,West,263,9.0,20.0,14,0.00,,,0.00,224.000000,,2013-04-08 01:53:00,
2013-04-07 20:22:00,57.0,15.0,-100.00,WSW,239,1.0,16.0,19,0.00,,,0.00,28.000000,,2013-04-08 02:22:00,
2013-04-07 20:33:00,57.0,15.0,-100.00,WSW,239,1.0,16.0,19,0.00,,,0.00,28.000000,,2013-04-08 02:33:00,
2013-04-07 20:45:00,57.0,15.0,-100.00,WSW,239,1.0,16.0,19,0.00,,,0.00,28.000000,,2013-04-08 02:45:00,
2013-04-07 20:52:00,57.0,15.0,-100.00,WSW,239,1.0,16.0,19,0.00,,,0.00,28.000000,,2013-04-08 02:52:00,
2013-04-07 21:23:00,58.0,17.0,-100.00,West,268,2.0,8.0,20,0.00,,,0.00,0.000000,,2013-04-08 03:23:00,
2013-04-07 21:33:00,58.0,17.0,-100.00,West,268,2.0,8.0,20,0.00,,,0.00,0.000000,,2013-04-08 03:33:00,
2013-04-07 21:53:00,58.0,17.0,-100.00,West,268,2.0,8.0,20,0.00,,,0.00,0.000000,,2013-04-08 03:53:00,
2013-04-07 22:23:00,53.0,15.0,-100.00,ESE,108,3.0,13.0,22,0.00,,,0.00,0.000000,,2013-04-08 04:23:00,
2013-04-07 22:33:00,53.0,15.0,-100.00,ESE,108,3.0,13.0,22,0.00,,,0.00,0.000000,,2013-04-08 04:33:00,
2013-04-07 22:43:00,53.0,15.0,-100.00,ESE,108,3.0,13.0,22,0.00,,,0.00,0.000000,,2013-04-08 04:43:00,
2013-04-07 22:52:00,53.0,15.0,-100.00,ESE,108,3.0,13.0,22,0.00,,,0.00,0.000000,,2013-04-08 04:52:00,
2013-04-07 23:32:00,50.0,16.0,-100.00,East,95,4.0,7.0,25,0.00,,,0.00,0.000000,,2013-04-08 05:32:00,
2013-04-07 23:42:00,50.0,16.0,-100.00,East,95,4.0,7.0,25,0.00,,,0.00,0.000000,,2013-04-08 05:42:00,
2013-04-07 23:51:00,50.0,16.0,-100.00,East,95,4.0,7.0,25,0.00,,,0.00,0.000000,,2013-04-08 05:51:00,